createdAt,value
2022-12-17T00:00:42.001Z,11.33
2022-12-17T00:03:29.930Z,14.33
2022-12-17T00:06:16.097Z,19.00
2022-12-17T00:09:01.914Z,14.33
2022-12-17T00:11:47.735Z,14.67
2022-12-17T00:14:33.237Z,12.33
2022-12-17T00:17:19.084Z,15.33
2022-12-17T00:20:05.285Z,21.00
2022-12-17T00:22:51.139Z,11.33
2022-12-17T00:25:36.899Z,9.67
2022-12-17T00:28:22.969Z,7.00
2022-12-17T00:31:11.638Z,9.33
2022-12-17T00:33:57.932Z,14.33
2022-12-17T00:36:44.964Z,10.67
2022-12-17T00:39:31.002Z,8.67
2022-12-17T00:42:17.171Z,9.00
2022-12-17T00:45:03.311Z,19.75
2022-12-17T00:47:49.054Z,11.75
2022-12-17T00:50:36.675Z,13.00
2022-12-17T00:53:22.802Z,13.67
2022-12-17T00:56:08.747Z,9.50
2022-12-17T00:58:55.620Z,8.75
2022-12-17T01:01:42.576Z,4.75
2022-12-17T01:04:28.703Z,9.75
2022-12-17T01:07:14.536Z,12.25
2022-12-17T01:10:00.442Z,9.75
2022-12-17T01:12:46.611Z,14.00
2022-12-17T01:15:32.541Z,10.75
2022-12-17T01:18:18.496Z,12.00
2022-12-17T01:21:04.628Z,5.00
2022-12-17T01:23:50.960Z,7.25
2022-12-17T01:26:37.142Z,13.00
2022-12-17T01:29:22.979Z,9.25
2022-12-17T01:32:09.327Z,12.25
2022-12-17T01:34:56.464Z,4.50
2022-12-17T01:37:42.504Z,14.75
2022-12-17T01:40:29.297Z,11.00
2022-12-17T01:43:18.133Z,12.25
2022-12-17T01:46:23.801Z,10.50
2022-12-17T01:49:13.054Z,9.00
2022-12-17T01:51:59.115Z,10.00
2022-12-17T01:54:45.199Z,7.00
2022-12-17T01:57:31.477Z,10.00
2022-12-17T02:00:20.733Z,8.75
2022-12-17T02:03:06.937Z,9.00
2022-12-17T02:06:29.532Z,9.00
2022-12-17T02:09:36.475Z,5.50
2022-12-17T02:12:53.224Z,12.25
2022-12-17T02:16:28.759Z,9.75
2022-12-17T02:19:48.822Z,10.75
2022-12-17T02:22:46.609Z,8.75
2022-12-17T02:25:51.916Z,8.25
2022-12-17T02:28:39.691Z,9.25
2022-12-17T02:31:27.978Z,11.00
2022-12-17T02:34:16.375Z,3.75
2022-12-17T02:37:05.985Z,9.00
2022-12-17T02:39:52.370Z,4.50
2022-12-17T02:42:45.140Z,3.75
2022-12-17T02:45:31.847Z,12.50
2022-12-17T02:48:19.839Z,6.00
2022-12-17T02:51:06.582Z,8.25
2022-12-17T02:53:53.677Z,6.50
2022-12-17T02:56:42.504Z,6.50
2022-12-17T02:59:29.076Z,8.50
2022-12-17T03:02:16.505Z,11.00
2022-12-17T03:05:21.106Z,3.00
2022-12-17T03:08:09.618Z,12.25
2022-12-17T03:10:55.337Z,6.00
2022-12-17T03:13:46.568Z,10.00
2022-12-17T03:16:37.751Z,6.67
2022-12-17T03:19:24.334Z,16.33
2022-12-17T03:22:10.331Z,7.67
2022-12-17T03:24:56.531Z,12.67
2022-12-17T03:27:42.750Z,7.00
2022-12-17T03:30:32.118Z,3.00
2022-12-17T03:33:22.097Z,4.50
2022-12-17T03:36:11.584Z,3.25
2022-12-17T03:38:57.308Z,14.00
2022-12-17T03:41:43.283Z,9.00
2022-12-17T03:44:29.128Z,6.33
2022-12-17T03:47:14.833Z,9.67
2022-12-17T03:50:00.997Z,7.00
2022-12-17T03:52:46.988Z,11.00
2022-12-17T03:55:33.199Z,13.00
2022-12-17T03:58:18.779Z,4.00
2022-12-17T04:01:04.563Z,15.00
2022-12-17T04:03:50.388Z,6.75
2022-12-17T04:06:36.333Z,15.00
2022-12-17T04:09:22.210Z,12.00
2022-12-17T04:12:08.533Z,4.00
2022-12-17T04:14:54.256Z,9.00
2022-12-17T04:17:39.998Z,9.00
2022-12-17T04:20:26.406Z,9.00
2022-12-17T04:23:12.353Z,3.75
2022-12-17T04:25:58.470Z,9.25
2022-12-17T04:28:44.553Z,6.00
2022-12-17T04:31:30.832Z,18.67
2022-12-17T04:34:16.898Z,6.67
2022-12-17T04:37:02.737Z,12.00
2022-12-17T04:39:48.468Z,10.00
2022-12-17T04:42:34.664Z,9.00
2022-12-17T04:45:20.260Z,9.00
2022-12-17T04:48:06.452Z,9.33
2022-12-17T04:50:52.315Z,7.00
2022-12-17T04:53:38.699Z,9.00
2022-12-17T04:56:25.635Z,9.00
2022-12-17T04:59:11.764Z,6.25
2022-12-17T05:01:58.171Z,9.50
2022-12-17T05:04:44.263Z,5.33
2022-12-17T05:07:29.863Z,6.33
2022-12-17T05:10:15.639Z,5.75
2022-12-17T05:13:01.331Z,9.00
2022-12-17T05:15:52.702Z,5.50
2022-12-17T05:18:43.427Z,8.33
2022-12-17T05:21:33.287Z,8.00
2022-12-17T05:24:19.702Z,6.00
2022-12-17T05:27:05.576Z,11.50
2022-12-17T05:29:51.223Z,19.33
2022-12-17T05:32:37.095Z,10.00
2022-12-17T05:35:23.311Z,12.33
2022-12-17T05:38:09.080Z,8.25
2022-12-17T05:40:54.829Z,10.50
2022-12-17T05:43:40.512Z,9.25
2022-12-17T05:46:27.008Z,18.33
2022-12-17T05:49:12.924Z,11.33
2022-12-17T05:51:59.011Z,15.00
2022-12-17T05:54:44.962Z,4.00
2022-12-17T05:57:30.930Z,13.00
2022-12-17T06:00:16.769Z,9.00
2022-12-17T06:03:02.762Z,9.67
2022-12-17T06:05:49.034Z,19.75
2022-12-17T06:08:35.035Z,15.33
2022-12-17T06:11:28.875Z,11.00
2022-12-17T06:14:14.803Z,11.50
2022-12-17T06:17:00.615Z,9.67
2022-12-17T06:19:46.876Z,10.67
2022-12-17T06:22:32.758Z,6.67
2022-12-17T06:25:18.619Z,11.33
2022-12-17T06:28:04.382Z,9.00
2022-12-17T06:30:50.657Z,9.67
2022-12-17T06:33:37.193Z,10.00
2022-12-17T06:36:23.570Z,7.00
2022-12-17T06:39:09.749Z,4.00
2022-12-17T06:42:02.046Z,12.33
2022-12-17T06:44:50.218Z,7.75
2022-12-17T06:47:36.528Z,13.00
2022-12-17T06:50:23.843Z,12.00
2022-12-17T06:53:21.158Z,11.50
2022-12-17T06:56:07.259Z,11.33
2022-12-17T06:58:53.579Z,4.25
2022-12-17T07:01:39.712Z,6.67
2022-12-17T07:04:25.730Z,13.33
2022-12-17T07:07:11.461Z,10.00
2022-12-17T07:09:57.350Z,9.67
2022-12-17T07:12:43.215Z,7.00
2022-12-17T07:15:29.597Z,9.33
2022-12-17T07:18:16.286Z,14.33
2022-12-17T07:21:02.580Z,7.00
2022-12-17T07:23:48.495Z,12.00
2022-12-17T07:26:34.317Z,14.67
2022-12-17T07:29:20.002Z,10.00
2022-12-17T07:32:06.051Z,9.00
2022-12-17T07:34:51.886Z,10.67
2022-12-17T07:37:37.980Z,12.67
2022-12-17T07:40:24.303Z,10.00
2022-12-17T07:43:10.045Z,10.00
2022-12-17T07:45:55.764Z,9.25
2022-12-17T07:48:41.886Z,7.00
2022-12-17T07:51:27.583Z,12.00
2022-12-17T07:54:13.773Z,12.33
2022-12-17T07:57:00.037Z,7.00
2022-12-17T07:59:46.786Z,15.67
2022-12-17T08:02:33.063Z,9.67
2022-12-17T08:05:19.321Z,17.00
2022-12-17T08:08:05.566Z,16.33
2022-12-17T08:10:51.801Z,14.67
2022-12-17T08:13:38.712Z,10.25
2022-12-17T08:16:25.304Z,12.75
2022-12-17T08:19:11.641Z,13.75
2022-12-17T08:21:57.778Z,12.00
2022-12-17T08:24:44.179Z,13.75
2022-12-17T08:27:30.139Z,14.50
2022-12-17T08:30:16.335Z,14.25
2022-12-17T08:33:02.607Z,13.75
2022-12-17T08:35:48.847Z,10.75
2022-12-17T08:38:34.993Z,16.00
2022-12-17T08:41:21.851Z,15.50
2022-12-17T08:44:08.001Z,10.75
2022-12-17T08:46:54.250Z,4.50
2022-12-17T08:49:40.277Z,15.25
2022-12-17T08:52:26.162Z,11.00
2022-12-17T08:55:12.236Z,19.75
2022-12-17T08:57:58.165Z,11.00
2022-12-17T09:00:44.201Z,15.25
2022-12-17T09:03:29.989Z,12.00
2022-12-17T09:06:17.920Z,11.50
2022-12-17T09:09:03.780Z,14.00
2022-12-17T09:11:49.938Z,20.00
2022-12-17T09:14:36.277Z,10.25
2022-12-17T09:17:22.449Z,18.50
2022-12-17T09:20:08.126Z,18.75
2022-12-17T09:22:54.227Z,11.00
2022-12-17T09:25:40.093Z,9.50
2022-12-17T09:28:26.164Z,13.00
2022-12-17T09:31:16.612Z,18.75
2022-12-17T09:34:02.758Z,10.50
2022-12-17T09:36:51.284Z,15.00
2022-12-17T09:39:37.573Z,10.00
2022-12-17T09:42:52.601Z,14.25
2022-12-17T09:46:24.255Z,8.00
2022-12-17T09:49:17.383Z,17.75
2022-12-17T09:52:03.121Z,12.00
2022-12-17T09:55:06.582Z,4.50
2022-12-17T09:57:55.480Z,10.25
2022-12-17T10:00:44.400Z,13.00
2022-12-17T10:03:38.390Z,10.75
2022-12-17T10:06:30.370Z,14.50
2022-12-17T10:09:19.526Z,13.50
2022-12-17T10:12:05.621Z,9.25
2022-12-17T10:14:52.006Z,5.00
2022-12-17T10:17:37.761Z,13.50
2022-12-17T10:20:51.393Z,10.50
2022-12-17T10:23:52.384Z,16.00
2022-12-17T10:26:44.912Z,4.75
2022-12-17T10:29:36.861Z,14.25
2022-12-17T10:32:31.102Z,9.50
2022-12-17T10:35:17.955Z,17.75
2022-12-17T10:38:05.708Z,10.00
2022-12-17T10:40:52.730Z,13.50
2022-12-17T10:43:58.909Z,12.25
2022-12-17T10:46:52.833Z,15.75
2022-12-17T10:49:43.624Z,13.00
2022-12-17T10:52:49.506Z,11.00
2022-12-17T10:55:49.609Z,11.00
2022-12-17T10:58:43.903Z,10.75
2022-12-17T11:01:36.469Z,22.00
2022-12-17T11:04:22.903Z,12.25
2022-12-17T11:07:13.318Z,14.00
2022-12-17T11:10:12.209Z,13.25
2022-12-17T11:13:02.123Z,3.75
2022-12-17T11:16:04.577Z,8.75
2022-12-17T11:19:02.450Z,12.25
2022-12-17T11:22:01.664Z,14.00
2022-12-17T11:24:53.690Z,12.25
2022-12-17T11:27:46.023Z,13.75
2022-12-17T11:30:33.908Z,9.50
2022-12-17T11:33:52.837Z,11.75
2022-12-17T11:36:50.803Z,20.50
2022-12-17T11:40:04.973Z,10.75
2022-12-17T11:43:03.201Z,16.50
2022-12-17T11:46:00.485Z,13.50
2022-12-17T11:48:52.067Z,14.00
2022-12-17T11:51:49.258Z,15.00
2022-12-17T11:54:57.563Z,9.00
2022-12-17T11:58:02.076Z,11.75
2022-12-17T12:00:54.413Z,15.50
2022-12-17T12:04:03.547Z,13.00
2022-12-17T12:07:14.332Z,13.50
2022-12-17T12:10:08.840Z,14.00
2022-12-17T12:13:03.792Z,15.25
2022-12-17T12:16:24.115Z,15.50
2022-12-17T12:19:24.101Z,14.75
2022-12-17T12:22:25.909Z,19.00
2022-12-17T12:25:44.120Z,15.75
2022-12-17T12:28:47.239Z,12.00
2022-12-17T12:32:22.555Z,12.00
2022-12-17T12:35:10.286Z,13.75
2022-12-17T12:37:56.527Z,13.00
2022-12-17T12:41:01.609Z,12.00
2022-12-17T12:43:54.360Z,15.25
2022-12-17T12:46:49.631Z,15.75
2022-12-17T12:50:00.875Z,12.50
2022-12-17T12:52:48.006Z,16.25
2022-12-17T12:55:34.070Z,16.25
2022-12-17T12:58:21.365Z,23.33
2022-12-17T13:01:08.052Z,25.67
2022-12-17T13:04:01.997Z,17.67
2022-12-17T13:06:54.249Z,10.50
2022-12-17T13:09:36.627Z,19.50
2022-12-17T13:12:04.166Z,15.00
2022-12-17T13:14:53.893Z,21.33
2022-12-17T13:17:39.880Z,23.50
2022-12-17T13:20:25.563Z,14.67
2022-12-17T13:23:11.738Z,11.67
2022-12-17T13:25:39.252Z,15.67
2022-12-17T13:28:26.013Z,13.67
2022-12-17T13:31:06.774Z,21.00
2022-12-17T13:34:07.600Z,20.67
2022-12-17T13:36:55.046Z,12.00
2022-12-17T13:39:46.756Z,18.25
2022-12-17T13:42:28.868Z,27.67
2022-12-17T13:44:57.605Z,22.25
2022-12-17T13:47:31.124Z,34.75
2022-12-17T13:52:48.400Z,16.00
2022-12-17T13:55:25.680Z,19.75
2022-12-17T13:57:55.309Z,20.75
2022-12-17T14:00:26.037Z,26.25
2022-12-17T14:02:54.948Z,18.00
2022-12-17T14:05:37.954Z,7.25
2022-12-17T14:08:06.475Z,21.00
2022-12-17T14:10:34.461Z,18.50
2022-12-17T14:13:07.758Z,17.25
2022-12-17T14:15:35.359Z,28.50
2022-12-17T14:18:03.837Z,16.50
2022-12-17T14:20:35.201Z,44.50
2022-12-17T14:23:12.912Z,25.75
2022-12-17T14:25:43.535Z,23.50
2022-12-17T14:28:37.288Z,26.00
2022-12-17T14:31:26.769Z,23.00
2022-12-17T14:34:11.604Z,19.00
2022-12-17T14:36:44.049Z,6.50
2022-12-17T14:39:19.234Z,26.50
2022-12-17T14:42:05.366Z,31.75
2022-12-17T14:44:33.342Z,27.75
2022-12-17T14:47:24.139Z,18.25
2022-12-17T14:49:59.732Z,19.50
2022-12-17T14:52:43.507Z,28.00
2022-12-17T14:55:34.883Z,23.25
2022-12-17T14:58:13.325Z,32.50
2022-12-17T15:00:41.587Z,26.25
2022-12-17T15:03:29.015Z,22.75
2022-12-17T15:06:03.159Z,28.50
2022-12-17T15:08:48.952Z,31.50
2022-12-17T15:11:20.517Z,19.00
2022-12-17T15:13:51.542Z,36.00
2022-12-17T15:16:22.856Z,19.50
2022-12-17T15:18:50.828Z,24.25
2022-12-17T15:21:19.223Z,30.25
2022-12-17T15:23:47.705Z,26.00
2022-12-17T15:26:15.464Z,20.50
2022-12-17T15:28:43.532Z,24.25
2022-12-17T15:31:13.515Z,35.75
2022-12-17T15:33:41.872Z,26.75
2022-12-17T15:36:12.026Z,24.50
2022-12-17T15:38:39.949Z,22.00
2022-12-17T15:41:26.467Z,34.50
2022-12-17T15:43:53.840Z,26.00
2022-12-17T15:46:21.172Z,38.75
2022-12-17T15:48:50.615Z,36.25
2022-12-17T15:51:20.013Z,36.25
2022-12-17T15:53:48.359Z,47.75
2022-12-17T15:56:20.877Z,45.25
2022-12-17T15:58:48.485Z,25.00
2022-12-17T16:01:15.946Z,30.25
2022-12-17T16:03:43.700Z,26.00
2022-12-17T16:06:11.829Z,25.00
2022-12-17T16:08:40.530Z,27.50
2022-12-17T16:11:12.508Z,25.25
2022-12-17T16:13:40.534Z,28.25
2022-12-17T16:16:08.984Z,26.00
2022-12-17T16:18:39.233Z,24.00
2022-12-17T16:21:08.419Z,25.75
2022-12-17T16:23:36.635Z,26.25
2022-12-17T16:26:05.902Z,15.75
2022-12-17T16:28:33.172Z,24.00
2022-12-17T16:31:10.729Z,22.00
2022-12-17T16:33:40.357Z,15.50
2022-12-17T16:36:11.416Z,30.00
2022-12-17T16:38:44.874Z,14.00
2022-12-17T16:41:12.904Z,21.50
2022-12-17T16:43:40.427Z,15.00
2022-12-17T16:46:28.262Z,28.25
2022-12-17T16:48:57.232Z,16.75
2022-12-17T16:51:29.299Z,26.00
2022-12-17T16:53:58.129Z,23.00
2022-12-17T16:56:27.923Z,25.50
2022-12-17T16:58:56.110Z,18.75
2022-12-17T17:01:29.171Z,26.75
2022-12-17T17:03:57.171Z,32.25
2022-12-17T17:06:30.150Z,28.25
2022-12-17T17:09:04.266Z,24.25
2022-12-17T17:11:31.722Z,22.00
2022-12-17T17:13:59.028Z,26.75
2022-12-17T17:16:26.952Z,16.75
2022-12-17T17:18:54.957Z,42.00
2022-12-17T17:21:29.223Z,24.50
2022-12-17T17:24:02.257Z,27.50
2022-12-17T17:26:32.115Z,23.00
2022-12-17T17:29:00.154Z,22.75
2022-12-17T17:32:01.177Z,14.25
2022-12-17T17:34:15.928Z,22.50
2022-12-17T17:36:43.387Z,18.50
2022-12-17T17:39:10.903Z,21.50
2022-12-17T17:41:38.181Z,18.50
2022-12-17T17:44:11.723Z,20.00
2022-12-17T17:46:40.232Z,23.75
2022-12-17T17:49:08.770Z,29.75
2022-12-17T17:52:08.316Z,29.25
2022-12-17T17:54:26.232Z,21.50
2022-12-17T17:56:53.465Z,16.50
2022-12-17T17:59:20.897Z,30.00
2022-12-17T18:01:50.489Z,25.00
2022-12-17T18:04:20.868Z,13.00
2022-12-17T18:07:16.495Z,30.00
2022-12-17T18:09:36.122Z,28.50
2022-12-17T18:12:23.710Z,14.50
2022-12-17T18:15:13.687Z,18.50
2022-12-17T18:17:38.303Z,24.75
2022-12-17T18:20:06.299Z,18.75
2022-12-17T18:22:33.563Z,16.25
2022-12-17T18:25:00.814Z,19.75
2022-12-17T18:27:28.444Z,15.25
2022-12-17T18:29:55.652Z,18.75
2022-12-17T18:32:22.898Z,19.50
2022-12-17T18:34:50.131Z,18.75
2022-12-17T18:37:17.548Z,16.00
2022-12-17T18:39:44.778Z,12.25
2022-12-17T18:42:30.368Z,15.75
2022-12-17T18:44:57.595Z,18.50
2022-12-17T18:47:25.704Z,18.00
2022-12-17T18:49:53.263Z,15.50
2022-12-17T18:52:20.710Z,16.50
2022-12-17T18:54:48.780Z,14.25
2022-12-17T18:57:16.000Z,12.25
2022-12-17T18:59:43.330Z,16.25
2022-12-17T19:02:14.527Z,23.25
2022-12-17T19:04:42.658Z,7.50
2022-12-17T19:07:10.653Z,19.75
2022-12-17T19:09:40.591Z,21.75
2022-12-17T19:12:09.535Z,20.00
2022-12-17T19:14:37.432Z,15.25
2022-12-17T19:17:06.265Z,21.25
2022-12-17T19:19:34.072Z,20.00
2022-12-17T19:22:02.290Z,18.00
2022-12-17T19:24:29.668Z,26.25
2022-12-17T19:26:57.001Z,15.00
2022-12-17T19:29:24.470Z,21.50
2022-12-17T19:31:51.865Z,21.25
2022-12-17T19:34:20.034Z,27.75
2022-12-17T19:36:48.213Z,27.00
2022-12-17T19:39:18.158Z,25.75
2022-12-17T19:41:46.401Z,15.75
2022-12-17T19:44:16.515Z,20.00
2022-12-17T19:46:44.309Z,23.50
2022-12-17T19:49:12.725Z,18.25
2022-12-17T19:51:41.481Z,30.25
2022-12-17T19:54:09.523Z,18.50
2022-12-17T19:56:36.978Z,20.25
2022-12-17T19:59:10.329Z,16.25
2022-12-17T20:01:41.745Z,20.00
2022-12-17T20:04:11.916Z,19.25
2022-12-17T20:06:39.130Z,13.25
2022-12-17T20:09:07.075Z,18.00
2022-12-17T20:11:35.737Z,21.25
2022-12-17T20:14:21.886Z,22.50
2022-12-17T20:16:51.995Z,20.75
2022-12-17T20:19:24.208Z,15.25
2022-12-17T20:21:52.802Z,14.75
2022-12-17T20:24:21.256Z,24.00
2022-12-17T20:26:53.512Z,18.00
2022-12-17T20:29:22.581Z,17.25
2022-12-17T20:31:51.405Z,21.75
2022-12-17T20:34:23.493Z,19.25
2022-12-17T20:36:52.330Z,22.25
2022-12-17T20:39:25.976Z,22.25
2022-12-17T20:41:54.435Z,29.25
2022-12-17T20:44:21.619Z,29.00
2022-12-17T20:46:48.808Z,21.25
2022-12-17T20:49:16.022Z,19.00
2022-12-17T20:51:43.809Z,14.50
2022-12-17T20:54:11.630Z,13.25
2022-12-17T20:56:40.790Z,17.50
2022-12-17T20:59:13.348Z,19.25
2022-12-17T21:01:41.078Z,18.50
2022-12-17T21:04:08.512Z,19.00
2022-12-17T21:06:47.283Z,27.00
2022-12-17T21:09:16.314Z,33.50
2022-12-17T21:11:43.540Z,23.50
2022-12-17T21:14:16.978Z,25.50
2022-12-17T21:16:45.004Z,27.00
2022-12-17T21:19:16.622Z,19.50
2022-12-17T21:21:44.584Z,24.50
2022-12-17T21:24:12.009Z,24.00
2022-12-17T21:26:41.848Z,22.75
2022-12-17T21:29:11.673Z,17.00
2022-12-17T21:31:52.807Z,19.25
2022-12-17T21:34:23.142Z,14.50
2022-12-17T21:36:51.326Z,7.00
2022-12-17T21:39:19.810Z,11.50
2022-12-17T21:42:07.172Z,27.50
2022-12-17T21:44:35.279Z,9.50
2022-12-17T21:47:02.772Z,29.25
2022-12-17T21:49:30.282Z,37.00
2022-12-17T21:51:59.489Z,28.75
2022-12-17T21:54:27.089Z,22.00
2022-12-17T21:56:54.359Z,30.25
2022-12-17T21:59:21.661Z,17.25
2022-12-17T22:01:49.954Z,14.50
2022-12-17T22:04:17.682Z,28.75
2022-12-17T22:06:58.991Z,27.50
2022-12-17T22:09:42.171Z,14.50
2022-12-17T22:12:35.468Z,31.25
2022-12-17T22:15:02.980Z,24.25
2022-12-17T22:17:30.742Z,24.00
2022-12-17T22:19:58.125Z,16.00
2022-12-17T22:22:25.486Z,25.00
2022-12-17T22:24:52.918Z,26.25
2022-12-17T22:27:20.179Z,35.25
2022-12-17T22:30:05.708Z,22.00
2022-12-17T22:32:59.044Z,29.50
2022-12-17T22:36:40.977Z,21.75
2022-12-17T22:43:10.078Z,18.00
2022-12-17T22:43:10.593Z,13.25
2022-12-17T22:44:39.383Z,21.25
2022-12-17T22:47:07.092Z,21.50
2022-12-17T22:49:34.352Z,27.00
2022-12-17T22:52:01.734Z,25.25
2022-12-17T22:54:29.354Z,20.00
2022-12-17T22:57:35.402Z,19.50
2022-12-17T22:59:44.699Z,23.00
2022-12-17T23:02:12.543Z,22.25
2022-12-17T23:04:40.259Z,42.50
2022-12-17T23:07:07.543Z,14.50
2022-12-17T23:09:34.971Z,22.00
2022-12-17T23:12:22.353Z,33.50
2022-12-17T23:14:49.697Z,23.50
2022-12-17T23:17:17.190Z,18.25
2022-12-17T23:19:45.119Z,12.50
2022-12-17T23:22:13.659Z,30.75
2022-12-17T23:24:43.711Z,27.00
2022-12-17T23:27:11.223Z,21.75
2022-12-17T23:29:38.534Z,25.00
2022-12-17T23:32:06.264Z,34.75
2022-12-17T23:34:33.680Z,19.00
2022-12-17T23:37:01.061Z,4.50
2022-12-17T23:39:29.370Z,25.25
2022-12-17T23:41:56.944Z,24.00
2022-12-17T23:44:24.395Z,21.00
2022-12-17T23:46:51.999Z,12.75
2022-12-17T23:49:19.732Z,15.50
2022-12-17T23:51:47.115Z,15.00
2022-12-17T23:54:14.801Z,26.50
2022-12-17T23:56:42.643Z,28.50
2022-12-17T23:59:10.532Z,25.75
